sensor_id;sensor_type;location;lat;lon;timestamp;P1;durP1;ratioP1;P2;durP2;ratioP2
42110;SDS011;27766;52.174;5.456;2022-09-09T00:00:53;1.40;;;0.70;;
42110;SDS011;27766;52.174;5.456;2022-09-09T00:03:31;1.77;;;1.02;;
42110;SDS011;27766;52.174;5.456;2022-09-09T00:08:55;5.40;;;0.70;;
42110;SDS011;27766;52.174;5.456;2022-09-09T00:11:49;4.10;;;0.80;;
42110;SDS011;27766;52.174;5.456;2022-09-09T00:20:16;2.58;;;0.98;;
42110;SDS011;27766;52.174;5.456;2022-09-09T00:25:38;2.13;;;0.90;;
42110;SDS011;27766;52.174;5.456;2022-09-09T00:28:18;1.42;;;1.00;;
42110;SDS011;27766;52.174;5.456;2022-09-09T00:30:49;1.48;;;0.95;;
42110;SDS011;27766;52.174;5.456;2022-09-09T00:33:17;1.63;;;1.10;;
42110;SDS011;27766;52.174;5.456;2022-09-09T00:35:49;1.15;;;0.82;;
42110;SDS011;27766;52.174;5.456;2022-09-09T00:38:33;2.30;;;1.02;;
42110;SDS011;27766;52.174;5.456;2022-09-09T00:43:40;2.22;;;1.17;;
42110;SDS011;27766;52.174;5.456;2022-09-09T00:52:02;3.97;;;2.00;;
42110;SDS011;27766;52.174;5.456;2022-09-09T00:54:52;3.55;;;1.85;;
42110;SDS011;27766;52.174;5.456;2022-09-09T00:57:32;4.47;;;2.40;;
42110;SDS011;27766;52.174;5.456;2022-09-09T01:05:54;3.60;;;2.47;;
42110;SDS011;27766;52.174;5.456;2022-09-09T01:11:43;4.03;;;2.47;;
42110;SDS011;27766;52.174;5.456;2022-09-09T01:17:14;3.72;;;3.13;;
42110;SDS011;27766;52.174;5.456;2022-09-09T01:22:26;7.07;;;2.97;;
42110;SDS011;27766;52.174;5.456;2022-09-09T01:28:03;5.15;;;2.90;;
42110;SDS011;27766;52.174;5.456;2022-09-09T01:30:37;5.75;;;2.90;;
42110;SDS011;27766;52.174;5.456;2022-09-09T01:33:07;3.53;;;2.80;;
42110;SDS011;27766;52.174;5.456;2022-09-09T01:35:42;4.78;;;3.00;;
42110;SDS011;27766;52.174;5.456;2022-09-09T01:38:21;3.58;;;2.45;;
42110;SDS011;27766;52.174;5.456;2022-09-09T01:40:51;4.45;;;3.00;;
42110;SDS011;27766;52.174;5.456;2022-09-09T01:43:22;5.00;;;3.20;;
42110;SDS011;27766;52.174;5.456;2022-09-09T01:45:53;7.70;;;4.20;;
42110;SDS011;27766;52.174;5.456;2022-09-09T01:48:22;9.32;;;4.07;;
42110;SDS011;27766;52.174;5.456;2022-09-09T01:50:51;7.10;;;3.30;;
42110;SDS011;27766;52.174;5.456;2022-09-09T01:53:19;4.78;;;4.00;;
42110;SDS011;27766;52.174;5.456;2022-09-09T02:01:12;4.47;;;3.70;;
42110;SDS011;27766;52.174;5.456;2022-09-09T02:03:51;6.13;;;4.40;;
42110;SDS011;27766;52.174;5.456;2022-09-09T02:06:36;5.72;;;4.32;;
42110;SDS011;27766;52.174;5.456;2022-09-09T02:09:06;5.22;;;4.53;;
42110;SDS011;27766;52.174;5.456;2022-09-09T02:11:37;6.90;;;5.03;;
42110;SDS011;27766;52.174;5.456;2022-09-09T02:14:05;4.97;;;4.05;;
42110;SDS011;27766;52.174;5.456;2022-09-09T02:16:40;5.65;;;4.47;;
42110;SDS011;27766;52.174;5.456;2022-09-09T02:19:11;5.93;;;4.50;;
42110;SDS011;27766;52.174;5.456;2022-09-09T02:21:56;7.05;;;4.45;;
42110;SDS011;27766;52.174;5.456;2022-09-09T02:24:27;5.78;;;4.28;;
42110;SDS011;27766;52.174;5.456;2022-09-09T02:26:57;6.25;;;4.43;;
42110;SDS011;27766;52.174;5.456;2022-09-09T02:29:31;5.90;;;4.10;;
42110;SDS011;27766;52.174;5.456;2022-09-09T02:32:06;6.07;;;4.88;;
42110;SDS011;27766;52.174;5.456;2022-09-09T02:34:40;6.60;;;4.80;;
42110;SDS011;27766;52.174;5.456;2022-09-09T02:37:11;6.78;;;4.40;;
42110;SDS011;27766;52.174;5.456;2022-09-09T02:39:41;5.45;;;4.32;;
42110;SDS011;27766;52.174;5.456;2022-09-09T02:42:09;8.25;;;4.53;;
42110;SDS011;27766;52.174;5.456;2022-09-09T02:44:36;5.35;;;4.20;;
42110;SDS011;27766;52.174;5.456;2022-09-09T02:47:09;7.32;;;4.40;;
42110;SDS011;27766;52.174;5.456;2022-09-09T02:52:20;5.72;;;4.88;;
42110;SDS011;27766;52.174;5.456;2022-09-09T02:55:07;7.13;;;4.47;;
42110;SDS011;27766;52.174;5.456;2022-09-09T02:57:42;6.55;;;4.53;;
42110;SDS011;27766;52.174;5.456;2022-09-09T03:00:14;5.40;;;4.63;;
42110;SDS011;27766;52.174;5.456;2022-09-09T03:02:41;6.18;;;4.97;;
42110;SDS011;27766;52.174;5.456;2022-09-09T03:05:09;6.43;;;5.07;;
42110;SDS011;27766;52.174;5.456;2022-09-09T03:07:36;6.75;;;4.93;;
42110;SDS011;27766;52.174;5.456;2022-09-09T03:10:04;7.80;;;6.00;;
42110;SDS011;27766;52.174;5.456;2022-09-09T03:12:32;7.80;;;5.43;;
42110;SDS011;27766;52.174;5.456;2022-09-09T03:15:02;9.10;;;5.65;;
42110;SDS011;27766;52.174;5.456;2022-09-09T03:17:30;8.02;;;5.88;;
42110;SDS011;27766;52.174;5.456;2022-09-09T03:19:58;8.52;;;5.20;;
42110;SDS011;27766;52.174;5.456;2022-09-09T03:22:25;6.53;;;5.28;;
42110;SDS011;27766;52.174;5.456;2022-09-09T03:24:52;7.63;;;5.47;;
42110;SDS011;27766;52.174;5.456;2022-09-09T03:27:19;7.28;;;4.97;;
42110;SDS011;27766;52.174;5.456;2022-09-09T03:29:47;7.82;;;5.60;;
42110;SDS011;27766;52.174;5.456;2022-09-09T03:32:17;7.60;;;5.75;;
42110;SDS011;27766;52.174;5.456;2022-09-09T03:34:45;8.65;;;5.38;;
42110;SDS011;27766;52.174;5.456;2022-09-09T03:37:14;7.88;;;5.90;;
42110;SDS011;27766;52.174;5.456;2022-09-09T03:39:41;6.32;;;5.65;;
42110;SDS011;27766;52.174;5.456;2022-09-09T03:42:08;9.93;;;5.20;;
42110;SDS011;27766;52.174;5.456;2022-09-09T03:44:35;7.68;;;6.13;;
42110;SDS011;27766;52.174;5.456;2022-09-09T03:47:02;13.45;;;5.70;;
42110;SDS011;27766;52.174;5.456;2022-09-09T03:49:30;6.50;;;5.70;;
42110;SDS011;27766;52.174;5.456;2022-09-09T03:51:59;12.82;;;6.75;;
42110;SDS011;27766;52.174;5.456;2022-09-09T03:54:27;7.70;;;6.03;;
42110;SDS011;27766;52.174;5.456;2022-09-09T03:56:55;6.47;;;5.43;;
42110;SDS011;27766;52.174;5.456;2022-09-09T03:59:22;7.32;;;6.32;;
42110;SDS011;27766;52.174;5.456;2022-09-09T04:01:49;7.85;;;6.35;;
42110;SDS011;27766;52.174;5.456;2022-09-09T04:04:17;7.45;;;6.25;;
42110;SDS011;27766;52.174;5.456;2022-09-09T04:06:46;7.22;;;6.13;;
42110;SDS011;27766;52.174;5.456;2022-09-09T04:09:15;9.77;;;6.65;;
42110;SDS011;27766;52.174;5.456;2022-09-09T04:11:42;10.10;;;5.85;;
42110;SDS011;27766;52.174;5.456;2022-09-09T04:14:09;7.45;;;5.95;;
42110;SDS011;27766;52.174;5.456;2022-09-09T04:16:36;9.48;;;6.28;;
42110;SDS011;27766;52.174;5.456;2022-09-09T04:19:04;7.93;;;6.07;;
42110;SDS011;27766;52.174;5.456;2022-09-09T04:21:33;7.93;;;6.38;;
42110;SDS011;27766;52.174;5.456;2022-09-09T04:24:00;8.57;;;6.38;;
42110;SDS011;27766;52.174;5.456;2022-09-09T04:26:28;7.45;;;5.97;;
42110;SDS011;27766;52.174;5.456;2022-09-09T04:28:55;7.80;;;6.03;;
42110;SDS011;27766;52.174;5.456;2022-09-09T04:31:22;7.97;;;6.35;;
42110;SDS011;27766;52.174;5.456;2022-09-09T04:33:50;7.75;;;6.07;;
42110;SDS011;27766;52.174;5.456;2022-09-09T04:36:18;11.98;;;6.63;;
42110;SDS011;27766;52.174;5.456;2022-09-09T04:38:46;7.65;;;6.38;;
42110;SDS011;27766;52.174;5.456;2022-09-09T04:41:15;14.40;;;6.55;;
42110;SDS011;27766;52.174;5.456;2022-09-09T04:43:43;7.30;;;5.97;;
42110;SDS011;27766;52.174;5.456;2022-09-09T04:46:10;10.63;;;7.53;;
42110;SDS011;27766;52.174;5.456;2022-09-09T04:48:37;13.05;;;8.63;;
42110;SDS011;27766;52.174;5.456;2022-09-09T04:51:05;17.85;;;10.27;;
42110;SDS011;27766;52.174;5.456;2022-09-09T04:53:36;14.20;;;10.82;;
42110;SDS011;27766;52.174;5.456;2022-09-09T04:56:06;13.90;;;10.60;;
42110;SDS011;27766;52.174;5.456;2022-09-09T04:58:38;12.23;;;10.40;;
42110;SDS011;27766;52.174;5.456;2022-09-09T05:01:09;11.73;;;8.25;;
42110;SDS011;27766;52.174;5.456;2022-09-09T05:03:45;11.35;;;6.72;;
42110;SDS011;27766;52.174;5.456;2022-09-09T05:06:14;7.80;;;6.00;;
42110;SDS011;27766;52.174;5.456;2022-09-09T05:08:43;13.00;;;6.63;;
42110;SDS011;27766;52.174;5.456;2022-09-09T05:11:27;8.50;;;5.68;;
42110;SDS011;27766;52.174;5.456;2022-09-09T05:13:56;6.75;;;5.28;;
42110;SDS011;27766;52.174;5.456;2022-09-09T05:16:23;7.68;;;5.15;;
42110;SDS011;27766;52.174;5.456;2022-09-09T05:18:51;9.07;;;5.18;;
42110;SDS011;27766;52.174;5.456;2022-09-09T05:21:19;8.45;;;5.65;;
42110;SDS011;27766;52.174;5.456;2022-09-09T05:23:48;7.85;;;5.25;;
42110;SDS011;27766;52.174;5.456;2022-09-09T05:26:18;9.18;;;4.90;;
42110;SDS011;27766;52.174;5.456;2022-09-09T05:28:47;13.27;;;4.93;;
42110;SDS011;27766;52.174;5.456;2022-09-09T05:31:14;7.25;;;4.85;;
42110;SDS011;27766;52.174;5.456;2022-09-09T05:33:44;8.85;;;5.18;;
42110;SDS011;27766;52.174;5.456;2022-09-09T05:36:13;7.80;;;5.20;;
42110;SDS011;27766;52.174;5.456;2022-09-09T05:38:42;11.02;;;5.28;;
42110;SDS011;27766;52.174;5.456;2022-09-09T05:41:10;8.05;;;5.00;;
42110;SDS011;27766;52.174;5.456;2022-09-09T05:43:38;6.80;;;4.63;;
42110;SDS011;27766;52.174;5.456;2022-09-09T05:46:07;6.38;;;5.18;;
42110;SDS011;27766;52.174;5.456;2022-09-09T05:48:36;7.53;;;5.57;;
42110;SDS011;27766;52.174;5.456;2022-09-09T05:51:08;9.27;;;5.25;;
42110;SDS011;27766;52.174;5.456;2022-09-09T05:53:42;11.80;;;5.32;;
42110;SDS011;27766;52.174;5.456;2022-09-09T05:56:15;8.82;;;5.18;;
42110;SDS011;27766;52.174;5.456;2022-09-09T05:58:46;9.18;;;5.63;;
42110;SDS011;27766;52.174;5.456;2022-09-09T06:01:14;8.65;;;4.43;;
42110;SDS011;27766;52.174;5.456;2022-09-09T06:03:46;11.77;;;5.45;;
42110;SDS011;27766;52.174;5.456;2022-09-09T06:06:16;7.45;;;4.63;;
42110;SDS011;27766;52.174;5.456;2022-09-09T06:08:47;7.35;;;4.68;;
42110;SDS011;27766;52.174;5.456;2022-09-09T06:11:18;7.10;;;4.60;;
42110;SDS011;27766;52.174;5.456;2022-09-09T06:13:48;6.03;;;4.68;;
42110;SDS011;27766;52.174;5.456;2022-09-09T06:16:18;12.38;;;4.45;;
42110;SDS011;27766;52.174;5.456;2022-09-09T06:18:46;9.95;;;5.15;;
42110;SDS011;27766;52.174;5.456;2022-09-09T06:21:16;11.45;;;4.57;;
42110;SDS011;27766;52.174;5.456;2022-09-09T06:23:47;4.78;;;3.60;;
42110;SDS011;27766;52.174;5.456;2022-09-09T06:26:15;10.90;;;4.20;;
42110;SDS011;27766;52.174;5.456;2022-09-09T06:28:45;9.55;;;4.60;;
42110;SDS011;27766;52.174;5.456;2022-09-09T06:31:15;7.55;;;4.20;;
42110;SDS011;27766;52.174;5.456;2022-09-09T06:33:54;15.23;;;4.22;;
42110;SDS011;27766;52.174;5.456;2022-09-09T06:36:22;9.73;;;4.00;;
42110;SDS011;27766;52.174;5.456;2022-09-09T06:38:54;12.55;;;4.65;;
42110;SDS011;27766;52.174;5.456;2022-09-09T06:41:24;11.95;;;3.75;;
42110;SDS011;27766;52.174;5.456;2022-09-09T06:43:55;6.00;;;3.65;;
42110;SDS011;27766;52.174;5.456;2022-09-09T06:46:27;9.35;;;3.63;;
42110;SDS011;27766;52.174;5.456;2022-09-09T06:48:56;4.15;;;3.10;;
42110;SDS011;27766;52.174;5.456;2022-09-09T06:51:29;8.27;;;3.90;;
42110;SDS011;27766;52.174;5.456;2022-09-09T06:53:59;8.75;;;3.88;;
42110;SDS011;27766;52.174;5.456;2022-09-09T06:56:29;11.20;;;3.60;;
42110;SDS011;27766;52.174;5.456;2022-09-09T06:58:59;7.35;;;3.75;;
42110;SDS011;27766;52.174;5.456;2022-09-09T07:01:32;3.95;;;2.78;;
42110;SDS011;27766;52.174;5.456;2022-09-09T07:04:01;7.03;;;2.80;;
42110;SDS011;27766;52.174;5.456;2022-09-09T07:06:31;4.93;;;3.03;;
42110;SDS011;27766;52.174;5.456;2022-09-09T07:09:07;3.47;;;2.45;;
42110;SDS011;27766;52.174;5.456;2022-09-09T07:11:40;6.40;;;2.92;;
42110;SDS011;27766;52.174;5.456;2022-09-09T07:14:08;5.97;;;2.80;;
42110;SDS011;27766;52.174;5.456;2022-09-09T07:16:37;6.82;;;3.08;;
42110;SDS011;27766;52.174;5.456;2022-09-09T07:19:05;7.85;;;2.38;;
42110;SDS011;27766;52.174;5.456;2022-09-09T07:21:32;9.55;;;2.65;;
42110;SDS011;27766;52.174;5.456;2022-09-09T07:24:00;7.75;;;2.45;;
42110;SDS011;27766;52.174;5.456;2022-09-09T07:26:37;9.20;;;2.88;;
42110;SDS011;27766;52.174;5.456;2022-09-09T07:29:05;10.57;;;2.78;;
42110;SDS011;27766;52.174;5.456;2022-09-09T07:31:35;8.57;;;3.47;;
42110;SDS011;27766;52.174;5.456;2022-09-09T07:34:04;8.43;;;3.28;;
42110;SDS011;27766;52.174;5.456;2022-09-09T07:36:33;5.70;;;2.55;;
42110;SDS011;27766;52.174;5.456;2022-09-09T07:39:09;7.22;;;2.95;;
42110;SDS011;27766;52.174;5.456;2022-09-09T07:41:42;4.18;;;2.22;;
42110;SDS011;27766;52.174;5.456;2022-09-09T07:44:12;4.73;;;2.53;;
42110;SDS011;27766;52.174;5.456;2022-09-09T07:46:41;7.55;;;2.55;;
42110;SDS011;27766;52.174;5.456;2022-09-09T07:49:09;9.20;;;2.72;;
42110;SDS011;27766;52.174;5.456;2022-09-09T07:51:41;8.75;;;2.70;;
42110;SDS011;27766;52.174;5.456;2022-09-09T07:54:12;7.22;;;2.85;;
42110;SDS011;27766;52.174;5.456;2022-09-09T07:56:40;12.32;;;2.80;;
42110;SDS011;27766;52.174;5.456;2022-09-09T07:59:09;9.65;;;2.40;;
42110;SDS011;27766;52.174;5.456;2022-09-09T08:01:38;5.68;;;2.50;;
42110;SDS011;27766;52.174;5.456;2022-09-09T08:04:09;6.38;;;2.20;;
42110;SDS011;27766;52.174;5.456;2022-09-09T08:06:43;9.70;;;2.70;;
42110;SDS011;27766;52.174;5.456;2022-09-09T08:09:12;5.93;;;2.53;;
42110;SDS011;27766;52.174;5.456;2022-09-09T08:11:41;5.60;;;2.45;;
42110;SDS011;27766;52.174;5.456;2022-09-09T08:14:10;6.88;;;2.22;;
42110;SDS011;27766;52.174;5.456;2022-09-09T08:16:39;4.32;;;2.25;;
42110;SDS011;27766;52.174;5.456;2022-09-09T08:19:09;8.65;;;2.92;;
42110;SDS011;27766;52.174;5.456;2022-09-09T08:21:37;5.22;;;2.28;;
42110;SDS011;27766;52.174;5.456;2022-09-09T08:24:07;9.48;;;1.95;;
42110;SDS011;27766;52.174;5.456;2022-09-09T08:26:36;3.60;;;2.00;;
42110;SDS011;27766;52.174;5.456;2022-09-09T08:29:05;8.32;;;2.17;;
42110;SDS011;27766;52.174;5.456;2022-09-09T08:31:35;5.75;;;2.00;;
42110;SDS011;27766;52.174;5.456;2022-09-09T08:34:04;7.10;;;2.47;;
42110;SDS011;27766;52.174;5.456;2022-09-09T08:36:34;3.95;;;2.17;;
42110;SDS011;27766;52.174;5.456;2022-09-09T08:39:06;9.95;;;2.53;;
42110;SDS011;27766;52.174;5.456;2022-09-09T08:44:28;2.70;;;1.30;;
42110;SDS011;27766;52.174;5.456;2022-09-09T08:55:44;4.15;;;1.60;;
42110;SDS011;27766;52.174;5.456;2022-09-09T08:58:33;5.45;;;1.90;;
42110;SDS011;27766;52.174;5.456;2022-09-09T09:06:50;4.38;;;2.20;;
42110;SDS011;27766;52.174;5.456;2022-09-09T09:09:35;4.97;;;2.28;;
42110;SDS011;27766;52.174;5.456;2022-09-09T09:12:15;7.50;;;2.30;;
42110;SDS011;27766;52.174;5.456;2022-09-09T09:14:45;6.50;;;2.47;;
42110;SDS011;27766;52.174;5.456;2022-09-09T09:17:17;4.72;;;2.00;;
42110;SDS011;27766;52.174;5.456;2022-09-09T09:19:46;7.35;;;2.30;;
42110;SDS011;27766;52.174;5.456;2022-09-09T09:22:23;4.82;;;2.08;;
42110;SDS011;27766;52.174;5.456;2022-09-09T09:28:02;3.95;;;2.08;;
42110;SDS011;27766;52.174;5.456;2022-09-09T09:30:39;4.22;;;2.03;;
42110;SDS011;27766;52.174;5.456;2022-09-09T09:33:19;5.47;;;2.22;;
42110;SDS011;27766;52.174;5.456;2022-09-09T09:35:53;10.02;;;2.00;;
42110;SDS011;27766;52.174;5.456;2022-09-09T09:38:22;8.20;;;2.35;;
42110;SDS011;27766;52.174;5.456;2022-09-09T09:41:13;5.38;;;2.60;;
42110;SDS011;27766;52.174;5.456;2022-09-09T09:43:40;9.00;;;2.55;;
42110;SDS011;27766;52.174;5.456;2022-09-09T09:46:21;8.25;;;2.03;;
42110;SDS011;27766;52.174;5.456;2022-09-09T09:49:03;5.13;;;2.38;;
42110;SDS011;27766;52.174;5.456;2022-09-09T09:51:32;12.35;;;2.75;;
42110;SDS011;27766;52.174;5.456;2022-09-09T09:56:40;4.72;;;1.83;;
42110;SDS011;27766;52.174;5.456;2022-09-09T10:07:42;4.95;;;2.40;;
42110;SDS011;27766;52.174;5.456;2022-09-09T10:10:15;4.43;;;1.88;;
42110;SDS011;27766;52.174;5.456;2022-09-09T10:15:30;7.15;;;2.38;;
42110;SDS011;27766;52.174;5.456;2022-09-09T10:21:27;5.30;;;1.88;;
42110;SDS011;27766;52.174;5.456;2022-09-09T10:26:52;6.90;;;1.88;;
42110;SDS011;27766;52.174;5.456;2022-09-09T10:29:51;3.90;;;1.90;;
42110;SDS011;27766;52.174;5.456;2022-09-09T10:34:59;3.55;;;1.73;;
42110;SDS011;27766;52.174;5.456;2022-09-09T10:37:44;8.85;;;1.75;;
42110;SDS011;27766;52.174;5.456;2022-09-09T10:43:09;8.23;;;1.88;;
42110;SDS011;27766;52.174;5.456;2022-09-09T10:51:22;3.45;;;1.70;;
42110;SDS011;27766;52.174;5.456;2022-09-09T10:56:54;10.15;;;2.10;;
42110;SDS011;27766;52.174;5.456;2022-09-09T10:59:26;4.93;;;2.10;;
42110;SDS011;27766;52.174;5.456;2022-09-09T11:02:15;3.67;;;1.90;;
42110;SDS011;27766;52.174;5.456;2022-09-09T11:08:14;2.67;;;1.70;;
42110;SDS011;27766;52.174;5.456;2022-09-09T11:13:23;11.13;;;2.13;;
42110;SDS011;27766;52.174;5.456;2022-09-09T11:16:00;5.05;;;2.08;;
42110;SDS011;27766;52.174;5.456;2022-09-09T11:18:32;3.65;;;2.28;;
42110;SDS011;27766;52.174;5.456;2022-09-09T11:21:12;5.28;;;2.22;;
42110;SDS011;27766;52.174;5.456;2022-09-09T11:23:50;7.45;;;2.58;;
42110;SDS011;27766;52.174;5.456;2022-09-09T11:26:33;6.97;;;2.30;;
42110;SDS011;27766;52.174;5.456;2022-09-09T11:29:25;11.13;;;2.05;;
42110;SDS011;27766;52.174;5.456;2022-09-09T11:37:51;5.15;;;1.92;;
42110;SDS011;27766;52.174;5.456;2022-09-09T11:40:28;9.70;;;2.05;;
42110;SDS011;27766;52.174;5.456;2022-09-09T11:43:02;3.80;;;1.60;;
42110;SDS011;27766;52.174;5.456;2022-09-09T11:45:30;2.95;;;1.27;;
42110;SDS011;27766;52.174;5.456;2022-09-09T11:48:03;6.93;;;1.50;;
42110;SDS011;27766;52.174;5.456;2022-09-09T11:50:36;3.63;;;1.65;;
42110;SDS011;27766;52.174;5.456;2022-09-09T11:55:43;5.93;;;2.13;;
42110;SDS011;27766;52.174;5.456;2022-09-09T12:00:41;2.10;;;1.60;;
42110;SDS011;27766;52.174;5.456;2022-09-09T12:06:16;3.50;;;1.60;;
42110;SDS011;27766;52.174;5.456;2022-09-09T12:09:09;7.22;;;2.15;;
42110;SDS011;27766;52.174;5.456;2022-09-09T12:11:43;4.30;;;2.22;;
42110;SDS011;27766;52.174;5.456;2022-09-09T12:14:21;6.28;;;2.28;;
42110;SDS011;27766;52.174;5.456;2022-09-09T12:16:50;9.68;;;2.22;;
42110;SDS011;27766;52.174;5.456;2022-09-09T12:19:19;4.07;;;2.25;;
42110;SDS011;27766;52.174;5.456;2022-09-09T12:21:58;6.28;;;2.53;;
42110;SDS011;27766;52.174;5.456;2022-09-09T12:24:39;5.82;;;2.05;;
42110;SDS011;27766;52.174;5.456;2022-09-09T12:27:18;9.00;;;1.92;;
42110;SDS011;27766;52.174;5.456;2022-09-09T12:29:55;5.22;;;2.17;;
42110;SDS011;27766;52.174;5.456;2022-09-09T12:32:44;4.60;;;1.90;;
42110;SDS011;27766;52.174;5.456;2022-09-09T12:35:19;4.82;;;1.73;;
42110;SDS011;27766;52.174;5.456;2022-09-09T12:37:52;5.10;;;2.25;;
42110;SDS011;27766;52.174;5.456;2022-09-09T12:40:27;3.90;;;2.23;;
42110;SDS011;27766;52.174;5.456;2022-09-09T12:42:56;6.80;;;2.50;;
42110;SDS011;27766;52.174;5.456;2022-09-09T12:45:24;6.50;;;2.50;;
42110;SDS011;27766;52.174;5.456;2022-09-09T12:50:26;5.87;;;2.27;;
42110;SDS011;27766;52.174;5.456;2022-09-09T12:52:59;7.73;;;2.13;;
42110;SDS011;27766;52.174;5.456;2022-09-09T12:55:35;5.65;;;1.98;;
42110;SDS011;27766;52.174;5.456;2022-09-09T12:58:05;3.08;;;2.17;;
42110;SDS011;27766;52.174;5.456;2022-09-09T13:00:33;4.70;;;2.05;;
42110;SDS011;27766;52.174;5.456;2022-09-09T13:03:27;8.73;;;2.65;;
42110;SDS011;27766;52.174;5.456;2022-09-09T13:05:50;4.32;;;1.83;;
42110;SDS011;27766;52.174;5.456;2022-09-09T13:08:18;10.95;;;2.05;;
42110;SDS011;27766;52.174;5.456;2022-09-09T13:10:57;4.07;;;2.38;;
42110;SDS011;27766;52.174;5.456;2022-09-09T13:13:31;4.53;;;2.22;;
42110;SDS011;27766;52.174;5.456;2022-09-09T13:16:04;5.78;;;2.03;;
42110;SDS011;27766;52.174;5.456;2022-09-09T13:18:35;4.15;;;2.10;;
42110;SDS011;27766;52.174;5.456;2022-09-09T13:21:07;5.63;;;2.63;;
42110;SDS011;27766;52.174;5.456;2022-09-09T13:23:35;5.78;;;1.67;;
42110;SDS011;27766;52.174;5.456;2022-09-09T13:28:49;2.83;;;1.77;;
42110;SDS011;27766;52.174;5.456;2022-09-09T13:31:24;6.70;;;1.85;;
42110;SDS011;27766;52.174;5.456;2022-09-09T13:33:58;3.53;;;1.95;;
42110;SDS011;27766;52.174;5.456;2022-09-09T13:36:33;2.40;;;1.63;;
42110;SDS011;27766;52.174;5.456;2022-09-09T13:39:02;4.30;;;1.92;;
42110;SDS011;27766;52.174;5.456;2022-09-09T13:44:14;3.40;;;2.00;;
42110;SDS011;27766;52.174;5.456;2022-09-09T13:47:04;4.70;;;2.10;;
42110;SDS011;27766;52.174;5.456;2022-09-09T13:49:36;4.15;;;1.73;;
42110;SDS011;27766;52.174;5.456;2022-09-09T13:52:05;3.80;;;1.65;;
42110;SDS011;27766;52.174;5.456;2022-09-09T13:54:57;3.63;;;1.52;;
42110;SDS011;27766;52.174;5.456;2022-09-09T13:57:26;3.88;;;2.08;;
42110;SDS011;27766;52.174;5.456;2022-09-09T13:59:53;1.95;;;1.67;;
42110;SDS011;27766;52.174;5.456;2022-09-09T14:02:32;5.95;;;2.05;;
42110;SDS011;27766;52.174;5.456;2022-09-09T14:05:00;3.65;;;1.38;;
42110;SDS011;27766;52.174;5.456;2022-09-09T14:07:27;11.93;;;2.13;;
42110;SDS011;27766;52.174;5.456;2022-09-09T14:09:56;3.22;;;1.65;;
42110;SDS011;27766;52.174;5.456;2022-09-09T14:12:23;5.45;;;2.10;;
42110;SDS011;27766;52.174;5.456;2022-09-09T14:14:51;4.32;;;2.38;;
42110;SDS011;27766;52.174;5.456;2022-09-09T14:17:18;14.00;;;2.50;;
42110;SDS011;27766;52.174;5.456;2022-09-09T14:19:45;3.55;;;1.77;;
42110;SDS011;27766;52.174;5.456;2022-09-09T14:22:12;3.58;;;2.17;;
42110;SDS011;27766;52.174;5.456;2022-09-09T14:24:40;3.88;;;2.25;;
42110;SDS011;27766;52.174;5.456;2022-09-09T14:27:10;4.53;;;2.00;;
42110;SDS011;27766;52.174;5.456;2022-09-09T14:29:37;9.60;;;2.00;;
42110;SDS011;27766;52.174;5.456;2022-09-09T14:32:04;3.97;;;2.10;;
42110;SDS011;27766;52.174;5.456;2022-09-09T14:34:36;3.67;;;1.95;;
42110;SDS011;27766;52.174;5.456;2022-09-09T14:37:04;3.05;;;2.17;;
42110;SDS011;27766;52.174;5.456;2022-09-09T14:39:34;6.97;;;2.30;;
42110;SDS011;27766;52.174;5.456;2022-09-09T14:42:04;3.10;;;1.55;;
42110;SDS011;27766;52.174;5.456;2022-09-09T14:44:32;5.55;;;2.30;;
42110;SDS011;27766;52.174;5.456;2022-09-09T14:47:00;6.22;;;2.10;;
42110;SDS011;27766;52.174;5.456;2022-09-09T14:49:27;5.30;;;2.33;;
42110;SDS011;27766;52.174;5.456;2022-09-09T14:51:55;5.32;;;2.80;;
42110;SDS011;27766;52.174;5.456;2022-09-09T14:54:22;4.80;;;2.20;;
42110;SDS011;27766;52.174;5.456;2022-09-09T14:56:49;2.97;;;2.40;;
42110;SDS011;27766;52.174;5.456;2022-09-09T14:59:17;5.88;;;2.47;;
42110;SDS011;27766;52.174;5.456;2022-09-09T15:01:44;5.70;;;2.63;;
42110;SDS011;27766;52.174;5.456;2022-09-09T15:04:11;7.47;;;2.67;;
42110;SDS011;27766;52.174;5.456;2022-09-09T15:06:41;5.20;;;2.47;;
42110;SDS011;27766;52.174;5.456;2022-09-09T15:09:10;7.35;;;3.20;;
42110;SDS011;27766;52.174;5.456;2022-09-09T15:11:38;4.32;;;2.92;;
42110;SDS011;27766;52.174;5.456;2022-09-09T15:14:06;11.38;;;3.20;;
42110;SDS011;27766;52.174;5.456;2022-09-09T15:16:35;4.80;;;2.85;;
42110;SDS011;27766;52.174;5.456;2022-09-09T15:19:03;5.38;;;3.50;;
42110;SDS011;27766;52.174;5.456;2022-09-09T15:21:33;3.42;;;2.35;;
42110;SDS011;27766;52.174;5.456;2022-09-09T15:24:02;3.83;;;2.60;;
42110;SDS011;27766;52.174;5.456;2022-09-09T15:26:31;4.72;;;2.70;;
42110;SDS011;27766;52.174;5.456;2022-09-09T15:29:01;4.50;;;2.60;;
42110;SDS011;27766;52.174;5.456;2022-09-09T15:31:29;3.35;;;1.70;;
42110;SDS011;27766;52.174;5.456;2022-09-09T15:33:58;2.67;;;1.58;;
42110;SDS011;27766;52.174;5.456;2022-09-09T15:36:28;3.05;;;1.27;;
42110;SDS011;27766;52.174;5.456;2022-09-09T15:38:59;4.60;;;1.65;;
42110;SDS011;27766;52.174;5.456;2022-09-09T15:41:27;5.38;;;1.40;;
42110;SDS011;27766;52.174;5.456;2022-09-09T15:43:55;2.80;;;1.38;;
42110;SDS011;27766;52.174;5.456;2022-09-09T15:46:36;8.05;;;1.45;;
42110;SDS011;27766;52.174;5.456;2022-09-09T15:49:09;1.70;;;1.23;;
42110;SDS011;27766;52.174;5.456;2022-09-09T15:51:41;2.80;;;1.33;;
42110;SDS011;27766;52.174;5.456;2022-09-09T15:54:14;4.73;;;1.87;;
42110;SDS011;27766;52.174;5.456;2022-09-09T15:56:45;8.52;;;1.60;;
42110;SDS011;27766;52.174;5.456;2022-09-09T15:59:13;5.03;;;1.65;;
42110;SDS011;27766;52.174;5.456;2022-09-09T16:01:41;2.60;;;1.25;;
42110;SDS011;27766;52.174;5.456;2022-09-09T16:04:09;3.55;;;1.67;;
42110;SDS011;27766;52.174;5.456;2022-09-09T16:06:37;3.78;;;1.92;;
42110;SDS011;27766;52.174;5.456;2022-09-09T16:09:05;3.40;;;1.27;;
42110;SDS011;27766;52.174;5.456;2022-09-09T16:11:34;6.38;;;1.63;;
42110;SDS011;27766;52.174;5.456;2022-09-09T16:14:04;4.13;;;1.45;;
42110;SDS011;27766;52.174;5.456;2022-09-09T16:16:33;2.20;;;1.60;;
42110;SDS011;27766;52.174;5.456;2022-09-09T16:19:03;2.55;;;1.77;;
42110;SDS011;27766;52.174;5.456;2022-09-09T16:21:38;1.55;;;1.10;;
42110;SDS011;27766;52.174;5.456;2022-09-09T16:24:08;2.55;;;1.55;;
42110;SDS011;27766;52.174;5.456;2022-09-09T16:26:39;4.60;;;1.48;;
42110;SDS011;27766;52.174;5.456;2022-09-09T16:29:12;5.18;;;1.60;;
42110;SDS011;27766;52.174;5.456;2022-09-09T16:31:44;3.20;;;1.38;;
42110;SDS011;27766;52.174;5.456;2022-09-09T16:34:13;2.35;;;1.55;;
42110;SDS011;27766;52.174;5.456;2022-09-09T16:36:42;2.38;;;1.10;;
42110;SDS011;27766;52.174;5.456;2022-09-09T16:39:11;3.30;;;1.23;;
42110;SDS011;27766;52.174;5.456;2022-09-09T16:41:42;5.78;;;1.15;;
42110;SDS011;27766;52.174;5.456;2022-09-09T16:44:11;3.50;;;1.25;;
42110;SDS011;27766;52.174;5.456;2022-09-09T16:46:40;3.30;;;1.25;;
42110;SDS011;27766;52.174;5.456;2022-09-09T16:49:09;2.75;;;1.20;;
42110;SDS011;27766;52.174;5.456;2022-09-09T16:51:39;3.53;;;0.88;;
42110;SDS011;27766;52.174;5.456;2022-09-09T16:54:08;3.13;;;1.25;;
42110;SDS011;27766;52.174;5.456;2022-09-09T16:56:37;2.67;;;1.40;;
42110;SDS011;27766;52.174;5.456;2022-09-09T16:59:10;1.50;;;1.08;;
42110;SDS011;27766;52.174;5.456;2022-09-09T17:01:40;5.05;;;1.65;;
42110;SDS011;27766;52.174;5.456;2022-09-09T17:04:09;4.13;;;2.00;;
42110;SDS011;27766;52.174;5.456;2022-09-09T17:06:40;4.50;;;1.63;;
42110;SDS011;27766;52.174;5.456;2022-09-09T17:09:09;2.65;;;1.60;;
42110;SDS011;27766;52.174;5.456;2022-09-09T17:11:40;3.50;;;1.38;;
42110;SDS011;27766;52.174;5.456;2022-09-09T17:14:10;3.50;;;1.45;;
42110;SDS011;27766;52.174;5.456;2022-09-09T17:16:43;2.67;;;1.38;;
42110;SDS011;27766;52.174;5.456;2022-09-09T17:19:11;2.30;;;1.63;;